sensor_id;sensor_type;location;lat;lon;timestamp;P1;durP1;ratioP1;P2;durP2;ratioP2
23594;SDS011;11975;47.674;9.472;2023-02-26T04:13:32;1999.90;;;999.90;;
23594;SDS011;11975;47.674;9.472;2023-02-26T04:15:58;1999.90;;;999.90;;
23594;SDS011;11975;47.674;9.472;2023-02-26T04:18:24;1999.90;;;999.90;;
23594;SDS011;11975;47.674;9.472;2023-02-26T04:20:50;1999.90;;;999.90;;
23594;SDS011;11975;47.674;9.472;2023-02-26T04:23:16;1999.90;;;999.90;;
23594;SDS011;11975;47.674;9.472;2023-02-26T04:25:44;1999.90;;;999.90;;
23594;SDS011;11975;47.674;9.472;2023-02-26T04:28:10;1999.90;;;999.90;;
23594;SDS011;11975;47.674;9.472;2023-02-26T04:30:36;1999.90;;;999.90;;
23594;SDS011;11975;47.674;9.472;2023-02-26T04:33:02;1999.90;;;999.90;;
23594;SDS011;11975;47.674;9.472;2023-02-26T04:35:28;29.33;;;27.63;;
23594;SDS011;11975;47.674;9.472;2023-02-26T04:37:54;29.27;;;27.63;;
23594;SDS011;11975;47.674;9.472;2023-02-26T04:40:20;28.80;;;27.20;;
23594;SDS011;11975;47.674;9.472;2023-02-26T04:42:48;28.45;;;26.85;;
23594;SDS011;11975;47.674;9.472;2023-02-26T04:45:14;28.17;;;26.58;;
23594;SDS011;11975;47.674;9.472;2023-02-26T04:47:40;27.20;;;25.70;;
23594;SDS011;11975;47.674;9.472;2023-02-26T04:50:06;27.08;;;25.58;;
23594;SDS011;11975;47.674;9.472;2023-02-26T04:52:33;27.80;;;26.20;;
23594;SDS011;11975;47.674;9.472;2023-02-26T04:54:59;27.47;;;25.87;;
23594;SDS011;11975;47.674;9.472;2023-02-26T04:57:24;27.48;;;25.88;;
23594;SDS011;11975;47.674;9.472;2023-02-26T04:59:51;28.33;;;26.73;;
23594;SDS011;11975;47.674;9.472;2023-02-26T05:02:17;28.00;;;26.40;;
23594;SDS011;11975;47.674;9.472;2023-02-26T05:04:43;26.97;;;25.47;;
23594;SDS011;11975;47.674;9.472;2023-02-26T05:07:09;27.13;;;25.63;;
23594;SDS011;11975;47.674;9.472;2023-02-26T05:09:35;28.13;;;26.53;;
23594;SDS011;11975;47.674;9.472;2023-02-26T05:12:01;28.00;;;26.40;;
23594;SDS011;11975;47.674;9.472;2023-02-26T05:14:27;28.10;;;26.50;;
23594;SDS011;11975;47.674;9.472;2023-02-26T05:16:53;28.13;;;26.53;;
23594;SDS011;11975;47.674;9.472;2023-02-26T05:19:19;29.73;;;27.83;;
23594;SDS011;11975;47.674;9.472;2023-02-26T05:21:45;28.02;;;26.42;;
23594;SDS011;11975;47.674;9.472;2023-02-26T05:24:14;29.83;;;28.13;;
23594;SDS011;11975;47.674;9.472;2023-02-26T05:26:40;28.58;;;26.95;;
23594;SDS011;11975;47.674;9.472;2023-02-26T05:29:06;29.27;;;27.60;;
23594;SDS011;11975;47.674;9.472;2023-02-26T05:31:32;28.27;;;26.67;;
23594;SDS011;11975;47.674;9.472;2023-02-26T05:33:58;28.77;;;27.17;;
23594;SDS011;11975;47.674;9.472;2023-02-26T05:36:24;28.63;;;27.03;;
23594;SDS011;11975;47.674;9.472;2023-02-26T05:38:50;29.10;;;27.50;;
23594;SDS011;11975;47.674;9.472;2023-02-26T05:41:16;523.55;;;272.15;;
23594;SDS011;11975;47.674;9.472;2023-02-26T05:43:42;28.57;;;26.97;;
23594;SDS011;11975;47.674;9.472;2023-02-26T05:46:08;1999.90;;;999.90;;
23594;SDS011;11975;47.674;9.472;2023-02-26T05:48:34;1999.90;;;999.90;;
23594;SDS011;11975;47.674;9.472;2023-02-26T05:51:00;1999.90;;;999.90;;
23594;SDS011;11975;47.674;9.472;2023-02-26T05:53:27;1999.90;;;999.90;;
23594;SDS011;11975;47.674;9.472;2023-02-26T05:55:53;1999.90;;;999.90;;
23594;SDS011;11975;47.674;9.472;2023-02-26T05:58:19;1999.90;;;999.90;;
23594;SDS011;11975;47.674;9.472;2023-02-26T06:00:45;1999.90;;;999.90;;
23594;SDS011;11975;47.674;9.472;2023-02-26T06:03:11;1999.90;;;999.90;;
23594;SDS011;11975;47.674;9.472;2023-02-26T06:05:37;1999.90;;;999.90;;
23594;SDS011;11975;47.674;9.472;2023-02-26T06:08:03;1999.90;;;999.90;;
23594;SDS011;11975;47.674;9.472;2023-02-26T06:10:30;1999.90;;;999.90;;
23594;SDS011;11975;47.674;9.472;2023-02-26T17:03:33;1999.90;;;999.90;;
23594;SDS011;11975;47.674;9.472;2023-02-26T17:06:10;1999.90;;;999.90;;
23594;SDS011;11975;47.674;9.472;2023-02-26T17:08:46;1343.23;;;676.00;;
23594;SDS011;11975;47.674;9.472;2023-02-26T17:11:25;28.67;;;27.07;;
23594;SDS011;11975;47.674;9.472;2023-02-26T17:16:51;28.48;;;26.88;;
23594;SDS011;11975;47.674;9.472;2023-02-26T17:19:17;28.45;;;26.85;;
23594;SDS011;11975;47.674;9.472;2023-02-26T17:21:53;28.27;;;26.67;;
23594;SDS011;11975;47.674;9.472;2023-02-26T17:24:33;27.65;;;26.10;;
23594;SDS011;11975;47.674;9.472;2023-02-26T17:27:01;27.85;;;26.25;;
23594;SDS011;11975;47.674;9.472;2023-02-26T17:29:33;27.45;;;25.95;;
23594;SDS011;11975;47.674;9.472;2023-02-26T17:32:05;520.85;;;269.65;;
23594;SDS011;11975;47.674;9.472;2023-02-26T17:34:40;30.00;;;28.30;;
23594;SDS011;11975;47.674;9.472;2023-02-26T17:37:11;27.13;;;25.63;;
23594;SDS011;11975;47.674;9.472;2023-02-26T17:39:37;26.80;;;25.30;;
23594;SDS011;11975;47.674;9.472;2023-02-26T17:42:08;27.08;;;25.58;;
23594;SDS011;11975;47.674;9.472;2023-02-26T17:44:41;26.70;;;25.20;;
23594;SDS011;11975;47.674;9.472;2023-02-26T17:47:09;26.42;;;24.88;;
23594;SDS011;11975;47.674;9.472;2023-02-26T17:49:39;26.60;;;25.10;;
23594;SDS011;11975;47.674;9.472;2023-02-26T17:52:05;25.77;;;24.38;;
23594;SDS011;11975;47.674;9.472;2023-02-26T17:54:32;26.20;;;24.60;;
23594;SDS011;11975;47.674;9.472;2023-02-26T17:56:58;25.65;;;24.25;;
23594;SDS011;11975;47.674;9.472;2023-02-26T17:59:24;26.00;;;24.55;;
23594;SDS011;11975;47.674;9.472;2023-02-26T18:01:51;25.85;;;24.45;;
23594;SDS011;11975;47.674;9.472;2023-02-26T18:04:17;25.90;;;24.48;;
23594;SDS011;11975;47.674;9.472;2023-02-26T18:06:43;25.90;;;24.50;;
23594;SDS011;11975;47.674;9.472;2023-02-26T18:09:10;26.83;;;25.33;;
23594;SDS011;11975;47.674;9.472;2023-02-26T18:11:37;26.90;;;25.40;;
23594;SDS011;11975;47.674;9.472;2023-02-26T18:14:04;26.50;;;25.00;;
23594;SDS011;11975;47.674;9.472;2023-02-26T18:16:37;29.20;;;27.10;;
23594;SDS011;11975;47.674;9.472;2023-02-26T18:19:04;29.40;;;27.42;;
23594;SDS011;11975;47.674;9.472;2023-02-26T18:21:31;31.40;;;29.27;;
23594;SDS011;11975;47.674;9.472;2023-02-26T18:23:57;30.27;;;27.92;;
23594;SDS011;11975;47.674;9.472;2023-02-26T18:26:26;28.05;;;26.35;;
23594;SDS011;11975;47.674;9.472;2023-02-26T18:28:55;28.02;;;26.33;;
23594;SDS011;11975;47.674;9.472;2023-02-26T18:31:22;28.33;;;26.52;;
23594;SDS011;11975;47.674;9.472;2023-02-26T18:33:49;29.58;;;27.45;;
23594;SDS011;11975;47.674;9.472;2023-02-26T18:36:19;29.10;;;26.83;;
23594;SDS011;11975;47.674;9.472;2023-02-26T18:38:48;29.48;;;27.45;;
23594;SDS011;11975;47.674;9.472;2023-02-26T18:41:14;29.63;;;27.70;;
23594;SDS011;11975;47.674;9.472;2023-02-26T18:43:40;28.67;;;26.77;;
23594;SDS011;11975;47.674;9.472;2023-02-26T18:46:07;27.52;;;25.92;;
23594;SDS011;11975;47.674;9.472;2023-02-26T18:48:34;25.63;;;24.23;;
23594;SDS011;11975;47.674;9.472;2023-02-26T18:51:00;26.45;;;24.95;;
23594;SDS011;11975;47.674;9.472;2023-02-26T18:53:26;26.50;;;25.00;;
23594;SDS011;11975;47.674;9.472;2023-02-26T18:55:52;25.52;;;24.13;;
23594;SDS011;11975;47.674;9.472;2023-02-26T18:58:19;26.42;;;24.92;;
23594;SDS011;11975;47.674;9.472;2023-02-26T19:00:46;26.38;;;24.88;;
23594;SDS011;11975;47.674;9.472;2023-02-26T19:03:12;26.50;;;25.00;;
23594;SDS011;11975;47.674;9.472;2023-02-26T19:05:38;26.40;;;24.90;;
23594;SDS011;11975;47.674;9.472;2023-02-26T19:08:04;26.55;;;24.95;;
23594;SDS011;11975;47.674;9.472;2023-02-26T19:10:30;26.85;;;25.35;;
23594;SDS011;11975;47.674;9.472;2023-02-26T19:12:57;26.95;;;25.45;;
23594;SDS011;11975;47.674;9.472;2023-02-26T19:15:24;27.27;;;25.77;;
23594;SDS011;11975;47.674;9.472;2023-02-26T19:17:50;27.83;;;26.13;;
23594;SDS011;11975;47.674;9.472;2023-02-26T19:20:16;26.90;;;25.40;;
23594;SDS011;11975;47.674;9.472;2023-02-26T19:22:42;25.95;;;24.55;;
23594;SDS011;11975;47.674;9.472;2023-02-26T19:25:10;26.45;;;24.95;;
23594;SDS011;11975;47.674;9.472;2023-02-26T19:27:36;26.45;;;24.83;;
23594;SDS011;11975;47.674;9.472;2023-02-26T19:30:03;27.87;;;26.27;;
23594;SDS011;11975;47.674;9.472;2023-02-26T19:32:30;27.08;;;25.48;;
23594;SDS011;11975;47.674;9.472;2023-02-26T19:34:56;27.38;;;25.88;;
23594;SDS011;11975;47.674;9.472;2023-02-26T19:37:22;28.08;;;26.48;;
23594;SDS011;11975;47.674;9.472;2023-02-26T19:39:48;27.30;;;25.70;;
23594;SDS011;11975;47.674;9.472;2023-02-26T19:42:14;27.45;;;25.77;;
23594;SDS011;11975;47.674;9.472;2023-02-26T19:44:40;25.50;;;24.10;;
23594;SDS011;11975;47.674;9.472;2023-02-26T19:47:06;26.75;;;25.15;;
23594;SDS011;11975;47.674;9.472;2023-02-26T19:49:32;27.42;;;25.92;;
23594;SDS011;11975;47.674;9.472;2023-02-26T19:51:58;29.02;;;27.23;;
23594;SDS011;11975;47.674;9.472;2023-02-26T19:54:24;27.90;;;26.30;;
23594;SDS011;11975;47.674;9.472;2023-02-26T19:56:50;26.02;;;24.52;;
23594;SDS011;11975;47.674;9.472;2023-02-26T19:59:16;26.90;;;25.35;;
23594;SDS011;11975;47.674;9.472;2023-02-26T20:01:43;29.45;;;27.63;;
23594;SDS011;11975;47.674;9.472;2023-02-26T20:04:13;28.25;;;25.77;;
23594;SDS011;11975;47.674;9.472;2023-02-26T20:06:40;27.50;;;25.90;;
23594;SDS011;11975;47.674;9.472;2023-02-26T20:09:06;26.60;;;25.10;;
23594;SDS011;11975;47.674;9.472;2023-02-26T20:11:32;27.67;;;26.08;;
23594;SDS011;11975;47.674;9.472;2023-02-26T20:13:58;27.15;;;25.65;;
23594;SDS011;11975;47.674;9.472;2023-02-26T20:16:24;27.85;;;26.15;;
23594;SDS011;11975;47.674;9.472;2023-02-26T20:18:50;27.33;;;25.83;;
23594;SDS011;11975;47.674;9.472;2023-02-26T20:21:16;27.58;;;25.98;;
23594;SDS011;11975;47.674;9.472;2023-02-26T20:23:43;27.40;;;25.80;;
23594;SDS011;11975;47.674;9.472;2023-02-26T20:26:10;28.17;;;26.58;;
23594;SDS011;11975;47.674;9.472;2023-02-26T20:28:39;27.27;;;25.77;;
23594;SDS011;11975;47.674;9.472;2023-02-26T20:31:05;27.90;;;26.30;;
23594;SDS011;11975;47.674;9.472;2023-02-26T20:33:31;28.42;;;26.83;;
23594;SDS011;11975;47.674;9.472;2023-02-26T20:35:58;28.42;;;26.83;;
23594;SDS011;11975;47.674;9.472;2023-02-26T20:38:24;26.45;;;24.95;;
23594;SDS011;11975;47.674;9.472;2023-02-26T20:40:52;27.45;;;25.95;;
23594;SDS011;11975;47.674;9.472;2023-02-26T20:43:18;26.40;;;24.90;;
23594;SDS011;11975;47.674;9.472;2023-02-26T20:45:44;26.90;;;25.30;;
23594;SDS011;11975;47.674;9.472;2023-02-26T20:48:10;27.10;;;25.50;;
